TGW811 RKPC-WSSS
Flight info
| Callsign | TGW811 |
|---|---|
| Flight time | N/A |
| Altitude | 34000 |
| Route | RKPC/07 N0455F340 PANS2E PANSI Y711 MUGUS Y742 SALMI Q11 WAGON B591 TACLE Q12 KABAM N892 MIGUG/K0819F340 N892 MELAS/N0438F340 N892 MABAL MABA2B WSSS/20R |
| Aircraft | A320/M-SDE3FGHIRWY/LB1 |
Departure
| Time | 2025-09-09 09:48 |
|---|---|
| Airport | Jeju International Airport (RKPC) |
Arrival
| Time | N/A |
|---|---|
| Airport | Singapore Changi Airport (WSSS) |
| Time | Latitude | Longitude | Altitude | Speed | Heading |
|---|---|---|---|---|---|
| 2025-09-09 09:09 | 33.50544 | 126.48472 | 146 ft | 0 kts | 329° |
| 2025-09-09 09:41 | 33.50555 | 126.48465 | 93 ft | 3 kts | 329° |
| 2025-09-09 09:42 | 33.50600 | 126.48414 | 91 ft | 6 kts | 270° |
| 2025-09-09 09:42 | 33.50550 | 126.48313 | 91 ft | 8 kts | 238° |
| 2025-09-09 09:43 | 33.50477 | 126.48173 | 91 ft | 11 kts | 238° |
| 2025-09-09 09:43 | 33.50388 | 126.48002 | 92 ft | 13 kts | 239° |
| 2025-09-09 09:44 | 33.50235 | 126.47705 | 92 ft | 15 kts | 238° |
| 2025-09-09 09:44 | 33.50178 | 126.47594 | 92 ft | 16 kts | 238° |
| 2025-09-09 09:45 | 33.50053 | 126.47350 | 91 ft | 17 kts | 238° |
| 2025-09-09 09:45 | 33.50024 | 126.47185 | 91 ft | 10 kts | 334° |
| 2025-09-09 09:46 | 33.50171 | 126.47204 | 93 ft | 12 kts | 54° |
| 2025-09-09 09:46 | 33.50277 | 126.47407 | 91 ft | 44 kts | 58° |
| 2025-09-09 09:46 | 33.50553 | 126.47939 | 93 ft | 104 kts | 58° |
| 2025-09-09 09:47 | 33.52205 | 126.51153 | 949 ft | 164 kts | 60° |
| 2025-09-09 09:47 | 33.52801 | 126.52319 | 1528 ft | 165 kts | 59° |
| 2025-09-09 09:48 | 33.54932 | 126.56472 | 2069 ft | 226 kts | 59° |
| 2025-09-09 09:49 | 33.56749 | 126.60029 | 2597 ft | 270 kts | 59° |
| 2025-09-09 09:49 | 33.58755 | 126.63950 | 4001 ft | 280 kts | 58° |
| 2025-09-09 09:49 | 33.59758 | 126.65969 | 4721 ft | 284 kts | 65° |
| 2025-09-09 09:50 | 33.59976 | 126.70580 | 6069 ft | 287 kts | 114° |
| 2025-09-09 09:50 | 33.57229 | 126.73854 | 7311 ft | 282 kts | 164° |
| 2025-09-09 09:51 | 33.53488 | 126.73652 | 8569 ft | 275 kts | 209° |
| 2025-09-09 09:52 | 33.48990 | 126.69340 | 10230 ft | 289 kts | 221° |
| 2025-09-09 09:52 | 33.46289 | 126.66609 | 10463 ft | 320 kts | 221° |
| 2025-09-09 09:53 | 33.42817 | 126.63124 | 11365 ft | 328 kts | 221° |
| 2025-09-09 09:53 | 33.39291 | 126.59575 | 12359 ft | 333 kts | 221° |
| 2025-09-09 09:54 | 33.35715 | 126.55978 | 13346 ft | 338 kts | 221° |
| 2025-09-09 09:54 | 33.30217 | 126.50463 | 15027 ft | 349 kts | 221° |
| 2025-09-09 09:55 | 33.26468 | 126.46707 | 16073 ft | 355 kts | 221° |
| 2025-09-09 09:56 | 33.20082 | 126.40325 | 17448 ft | 364 kts | 221° |
| 2025-09-09 09:56 | 33.16827 | 126.37073 | 18115 ft | 369 kts | 221° |
| 2025-09-09 09:57 | 33.12864 | 126.33107 | 18828 ft | 374 kts | 221° |
| 2025-09-09 09:57 | 33.08850 | 126.29102 | 19540 ft | 379 kts | 221° |
| 2025-09-09 09:58 | 33.04782 | 126.25057 | 20249 ft | 383 kts | 221° |
| 2025-09-09 09:58 | 33.00568 | 126.21120 | 20910 ft | 390 kts | 212° |
| 2025-09-09 09:59 | 32.95549 | 126.18482 | 21561 ft | 397 kts | 205° |
| 2025-09-09 09:59 | 32.90426 | 126.15928 | 22172 ft | 402 kts | 206° |
| 2025-09-09 10:00 | 32.82662 | 126.12066 | 23071 ft | 408 kts | 206° |
| 2025-09-09 10:00 | 32.77386 | 126.09454 | 23608 ft | 413 kts | 206° |
| 2025-09-09 10:01 | 32.72057 | 126.06820 | 24088 ft | 416 kts | 205° |
| 2025-09-09 10:01 | 32.69371 | 126.05497 | 24344 ft | 418 kts | 205° |
| 2025-09-09 10:02 | 32.63979 | 126.02842 | 24835 ft | 421 kts | 205° |
| 2025-09-09 10:03 | 32.53068 | 125.97476 | 25801 ft | 428 kts | 205° |
| 2025-09-09 10:05 | 32.27993 | 125.85197 | 27850 ft | 442 kts | 205° |
| 2025-09-09 10:07 | 32.08018 | 125.75456 | 30007 ft | 442 kts | 205° |
| 2025-09-09 10:09 | 31.85368 | 125.64476 | 32323 ft | 439 kts | 204° |
| 2025-09-09 10:11 | 31.62771 | 125.53587 | 33892 ft | 446 kts | 204° |
| 2025-09-09 10:13 | 31.39672 | 125.42512 | 33892 ft | 449 kts | 204° |
| 2025-09-09 10:15 | 31.16543 | 125.31465 | 33907 ft | 450 kts | 204° |
| 2025-09-09 10:17 | 30.93311 | 125.20443 | 33908 ft | 451 kts | 204° |
| 2025-09-09 10:18 | 30.72998 | 125.10856 | 33906 ft | 451 kts | 204° |
| 2025-09-09 10:21 | 30.48682 | 124.99183 | 33932 ft | 449 kts | 203° |
| 2025-09-09 10:23 | 30.25383 | 124.88552 | 33883 ft | 452 kts | 204° |
| 2025-09-09 10:25 | 30.01992 | 124.77663 | 33894 ft | 454 kts | 203° |
| 2025-09-09 10:27 | 29.78470 | 124.66778 | 33905 ft | 456 kts | 203° |
| 2025-09-09 10:29 | 29.54849 | 124.55907 | 33910 ft | 457 kts | 203° |
| 2025-09-09 10:31 | 29.31181 | 124.45069 | 33915 ft | 458 kts | 203° |
| 2025-09-09 10:33 | 29.07444 | 124.34247 | 33914 ft | 460 kts | 202° |
| 2025-09-09 10:35 | 28.84071 | 124.23650 | 33932 ft | 461 kts | 201° |
| 2025-09-09 10:37 | 28.60136 | 124.12859 | 33911 ft | 464 kts | 201° |
| 2025-09-09 10:38 | 28.39076 | 124.03395 | 33916 ft | 466 kts | 201° |
| 2025-09-09 10:41 | 28.13049 | 123.91150 | 33925 ft | 467 kts | 202° |
| 2025-09-09 10:42 | 27.92045 | 123.81138 | 33932 ft | 468 kts | 202° |
| 2025-09-09 10:45 | 27.65020 | 123.68297 | 33940 ft | 468 kts | 202° |
| 2025-09-09 10:46 | 27.46086 | 123.54052 | 33943 ft | 469 kts | 215° |
| 2025-09-09 10:49 | 27.22197 | 123.34754 | 33950 ft | 470 kts | 215° |
| 2025-09-09 10:50 | 27.03563 | 123.19786 | 33956 ft | 471 kts | 215° |
| 2025-09-09 10:53 | 26.79534 | 123.00588 | 33957 ft | 471 kts | 215° |
| 2025-09-09 10:54 | 26.60830 | 122.85738 | 33955 ft | 471 kts | 214° |
| 2025-09-09 10:57 | 26.36773 | 122.66699 | 33958 ft | 471 kts | 215° |
| 2025-09-09 10:58 | 26.18041 | 122.51926 | 33956 ft | 471 kts | 214° |
| 2025-09-09 11:01 | 25.91195 | 122.30882 | 33966 ft | 472 kts | 214° |
| 2025-09-09 11:02 | 25.75067 | 122.18306 | 33964 ft | 472 kts | 214° |
| 2025-09-09 11:05 | 25.48346 | 122.07287 | 33959 ft | 466 kts | 180° |
| 2025-09-09 11:06 | 25.25660 | 122.06377 | 33964 ft | 466 kts | 180° |
| 2025-09-09 11:09 | 24.96471 | 122.05231 | 33979 ft | 467 kts | 180° |
| 2025-09-09 11:11 | 24.70489 | 122.04222 | 33980 ft | 467 kts | 180° |
| 2025-09-09 11:13 | 24.44490 | 122.03203 | 33983 ft | 467 kts | 180° |
| 2025-09-09 11:15 | 24.20099 | 121.97896 | 33990 ft | 471 kts | 195° |
| 2025-09-09 11:17 | 23.91817 | 121.88696 | 33984 ft | 471 kts | 195° |
| 2025-09-09 11:19 | 23.69793 | 121.81546 | 33987 ft | 471 kts | 195° |
| 2025-09-09 11:21 | 23.44666 | 121.73421 | 33978 ft | 470 kts | 195° |
| 2025-09-09 11:22 | 23.22723 | 121.66360 | 33971 ft | 469 kts | 195° |
| 2025-09-09 11:25 | 22.95166 | 121.55703 | 33961 ft | 471 kts | 214° |
| 2025-09-09 11:27 | 22.74735 | 121.37855 | 33969 ft | 472 kts | 218° |
| 2025-09-09 11:29 | 22.54237 | 121.20062 | 33971 ft | 473 kts | 218° |
| 2025-09-09 11:31 | 22.33744 | 121.02285 | 33970 ft | 473 kts | 218° |
| 2025-09-09 11:33 | 22.13204 | 120.84554 | 33987 ft | 472 kts | 218° |
| 2025-09-09 11:35 | 21.92679 | 120.66902 | 33993 ft | 471 kts | 218° |
| 2025-09-09 11:37 | 21.72165 | 120.49319 | 33994 ft | 471 kts | 217° |
| 2025-09-09 11:39 | 21.51658 | 120.31809 | 33993 ft | 470 kts | 217° |
| 2025-09-09 11:41 | 21.31179 | 120.14396 | 33995 ft | 469 kts | 217° |
| 2025-09-09 11:43 | 21.10704 | 119.97043 | 33996 ft | 469 kts | 217° |
| 2025-09-09 11:45 | 20.91258 | 119.78550 | 33988 ft | 468 kts | 224° |
| 2025-09-09 11:47 | 20.72881 | 119.58762 | 33985 ft | 469 kts | 224° |
| 2025-09-09 11:49 | 20.54489 | 119.39036 | 33973 ft | 469 kts | 224° |
| 2025-09-09 11:51 | 20.36170 | 119.19458 | 33970 ft | 469 kts | 224° |
| 2025-09-09 11:53 | 20.18143 | 119.00251 | 33974 ft | 470 kts | 224° |
| 2025-09-09 11:55 | 20.00367 | 118.81381 | 33974 ft | 471 kts | 224° |
| 2025-09-09 11:57 | 19.81731 | 118.61663 | 33970 ft | 472 kts | 224° |
| 2025-09-09 11:59 | 19.63074 | 118.41988 | 33978 ft | 474 kts | 224° |
| 2025-09-09 12:01 | 19.44332 | 118.22300 | 33974 ft | 474 kts | 224° |
| 2025-09-09 12:02 | 19.27890 | 118.05081 | 33975 ft | 475 kts | 224° |
| 2025-09-09 12:05 | 19.06673 | 117.82943 | 33971 ft | 477 kts | 224° |
| 2025-09-09 12:07 | 18.87770 | 117.63276 | 33972 ft | 477 kts | 224° |
| 2025-09-09 12:09 | 18.68823 | 117.43665 | 33968 ft | 477 kts | 223° |
| 2025-09-09 12:11 | 18.49959 | 117.24156 | 33970 ft | 478 kts | 223° |
| 2025-09-09 12:13 | 18.30930 | 117.04580 | 33974 ft | 478 kts | 223° |
| 2025-09-09 12:14 | 18.14699 | 116.87935 | 33977 ft | 479 kts | 223° |
| 2025-09-09 12:17 | 17.96632 | 116.70251 | 34032 ft | 470 kts | 220° |
| 2025-09-09 12:19 | 17.78226 | 116.50573 | 33947 ft | 476 kts | 222° |
| 2025-09-09 12:21 | 17.56755 | 116.28803 | 33962 ft | 477 kts | 223° |
| 2025-09-09 12:22 | 17.42430 | 116.14303 | 33968 ft | 477 kts | 223° |
| 2025-09-09 12:25 | 17.21004 | 115.92626 | 33969 ft | 475 kts | 223° |
| 2025-09-09 12:27 | 17.02962 | 115.74449 | 33967 ft | 474 kts | 223° |
| 2025-09-09 12:29 | 16.81727 | 115.53119 | 33968 ft | 473 kts | 223° |
| 2025-09-09 12:31 | 16.65145 | 115.36492 | 33971 ft | 471 kts | 223° |
| 2025-09-09 12:33 | 16.44705 | 115.16070 | 33969 ft | 468 kts | 223° |
| 2025-09-09 12:35 | 16.28250 | 114.99689 | 33969 ft | 467 kts | 223° |
| 2025-09-09 12:37 | 16.09499 | 114.81060 | 33967 ft | 465 kts | 223° |
| 2025-09-09 12:39 | 15.90807 | 114.62541 | 33958 ft | 463 kts | 223° |
| 2025-09-09 12:41 | 15.69817 | 114.41794 | 33958 ft | 463 kts | 223° |
| 2025-09-09 12:43 | 15.52937 | 114.25161 | 33947 ft | 481 kts | 223° |
| 2025-09-09 12:45 | 15.33509 | 114.06071 | 33954 ft | 481 kts | 223° |
| 2025-09-09 12:47 | 15.12557 | 113.89032 | 33954 ft | 479 kts | 215° |
| 2025-09-09 12:49 | 14.91016 | 113.73092 | 33961 ft | 478 kts | 215° |
| 2025-09-09 12:51 | 14.69362 | 113.57103 | 33958 ft | 477 kts | 214° |
| 2025-09-09 12:53 | 14.47810 | 113.41214 | 33958 ft | 476 kts | 214° |
| 2025-09-09 12:55 | 14.26251 | 113.25308 | 33943 ft | 464 kts | 214° |
| 2025-09-09 12:57 | 14.06323 | 113.10617 | 33947 ft | 455 kts | 214° |
| 2025-09-09 12:59 | 13.85580 | 112.95400 | 33950 ft | 473 kts | 214° |
| 2025-09-09 13:01 | 13.63571 | 112.79291 | 33948 ft | 487 kts | 214° |
| 2025-09-09 13:03 | 13.41448 | 112.63151 | 33946 ft | 488 kts | 215° |
| 2025-09-09 13:04 | 13.22092 | 112.49051 | 33946 ft | 488 kts | 215° |
| 2025-09-09 13:07 | 12.97134 | 112.30919 | 33954 ft | 488 kts | 215° |
| 2025-09-09 13:09 | 12.72163 | 112.12809 | 33950 ft | 488 kts | 215° |
| 2025-09-09 13:11 | 12.52724 | 111.98758 | 33945 ft | 489 kts | 215° |
| 2025-09-09 13:13 | 12.28653 | 111.81346 | 33946 ft | 490 kts | 215° |
| 2025-09-09 13:15 | 12.09213 | 111.67218 | 33950 ft | 490 kts | 215° |
| 2025-09-09 13:17 | 11.84213 | 111.49119 | 33953 ft | 490 kts | 216° |
| 2025-09-09 13:19 | 11.64876 | 111.35127 | 33954 ft | 490 kts | 216° |
| 2025-09-09 13:21 | 11.39832 | 111.17066 | 33951 ft | 490 kts | 216° |
| 2025-09-09 13:23 | 11.21527 | 111.03927 | 33947 ft | 485 kts | 216° |
| 2025-09-09 13:25 | 10.96584 | 110.86274 | 33947 ft | 485 kts | 215° |
| 2025-09-09 13:26 | 10.83066 | 110.76717 | 33952 ft | 486 kts | 215° |